Time;durP1;ratioP1;P1;durP2;ratioP2;P2;SDS_P1;SDS_P2;PMS_P1;PMS_P2;Temp;Humidity;BMP_temperature;BMP_pressure;BME280_temperature;BME280_humidity;BME280_pressure;Samples;Min_cycle;Max_cycle;Signal;HPM_P1;HPM_P2
2023/12/15 00:02:24;;;;;;;8.57;5.80;;;3.60;99.90;;;;;;4953222;28;20798;-57
2023/12/15 00:04:50;;;;;;;7.80;5.57;;;3.60;99.90;;;;;;4948517;28;20248;-53
2023/12/15 00:07:15;;;;;;;9.47;5.03;;;3.60;99.90;;;;;;4952465;28;20175;-52
2023/12/15 00:09:41;;;;;;;7.87;5.70;;;3.50;99.90;;;;;;4953451;28;20417;-54
2023/12/15 00:12:07;;;;;;;6.90;5.37;;;3.50;99.90;;;;;;4945614;28;20184;-56
2023/12/15 00:14:32;;;;;;;8.93;6.27;;;3.60;99.90;;;;;;4951325;28;20202;-53
2023/12/15 00:16:58;;;;;;;12.63;5.30;;;3.50;99.90;;;;;;4952514;28;20226;-53
2023/12/15 00:19:24;;;;;;;8.87;5.53;;;3.50;99.90;;;;;;4942896;28;20207;-52
2023/12/15 00:21:49;;;;;;;8.23;5.57;;;3.50;99.90;;;;;;4942763;28;20788;-53
2023/12/15 00:24:15;;;;;;;8.07;5.60;;;3.50;99.90;;;;;;4951215;28;20203;-54
2023/12/15 00:26:40;;;;;;;9.83;5.40;;;3.50;99.90;;;;;;4954617;28;20177;-54
2023/12/15 00:29:06;;;;;;;9.87;5.50;;;3.60;99.90;;;;;;4953319;28;20171;-55
2023/12/15 00:31:31;;;;;;;9.53;6.33;;;3.50;99.90;;;;;;4946223;28;20182;-53
2023/12/15 00:33:58;;;;;;;7.70;5.23;;;3.50;99.90;;;;;;4947865;28;20566;-54
2023/12/15 00:36:23;;;;;;;6.90;5.13;;;3.50;99.90;;;;;;4944130;28;20185;-53
2023/12/15 00:38:49;;;;;;;6.20;4.90;;;3.50;99.90;;;;;;4949955;28;20536;-57
2023/12/15 00:41:15;;;;;;;9.77;5.87;;;3.50;99.90;;;;;;4951958;28;20262;-53
2023/12/15 00:43:40;;;;;;;7.93;5.10;;;3.50;99.90;;;;;;4952712;28;20318;-53
2023/12/15 00:46:06;;;;;;;7.73;4.60;;;3.50;99.90;;;;;;4951622;28;20261;-57
2023/12/15 00:48:32;;;;;;;8.27;4.90;;;3.50;99.90;;;;;;4944642;28;20175;-55
2023/12/15 00:50:57;;;;;;;13.70;5.27;;;3.50;99.90;;;;;;4953310;28;20414;-55
2023/12/15 00:53:24;;;;;;;7.10;4.67;;;3.50;99.90;;;;;;4949552;28;20550;-53
2023/12/15 00:55:49;;;;;;;11.80;5.60;;;3.50;99.90;;;;;;4940542;28;20189;-57
2023/12/15 00:58:15;;;;;;;7.83;5.27;;;3.50;99.90;;;;;;4949414;28;20414;-55
2023/12/15 01:00:40;;;;;;;7.50;5.20;;;3.50;99.90;;;;;;4950672;28;20669;-53
2023/12/15 01:03:06;;;;;;;6.40;4.90;;;3.50;99.90;;;;;;4951495;28;20238;-54
2023/12/15 01:05:32;;;;;;;6.77;4.17;;;3.40;99.90;;;;;;4945056;28;20554;-55
2023/12/15 01:07:57;;;;;;;7.17;4.70;;;3.40;99.90;;;;;;4946134;28;20253;-54
2023/12/15 01:10:23;;;;;;;6.77;4.40;;;3.40;99.90;;;;;;4949250;28;20189;-55
2023/12/15 01:12:48;;;;;;;10.37;4.70;;;3.40;99.90;;;;;;4947758;28;20278;-52
2023/12/15 01:15:14;;;;;;;6.97;4.97;;;3.30;99.90;;;;;;4950793;28;20692;-54
2023/12/15 01:17:40;;;;;;;6.33;4.60;;;3.30;99.90;;;;;;4952111;28;20178;-54
2023/12/15 01:20:06;;;;;;;7.73;4.77;;;3.20;99.90;;;;;;4951974;28;20199;-53
2023/12/15 01:22:31;;;;;;;5.70;4.00;;;3.20;99.90;;;;;;4945603;28;20529;-52
2023/12/15 01:24:57;;;;;;;5.57;4.00;;;3.20;99.90;;;;;;4951213;28;20466;-55
2023/12/15 01:27:23;;;;;;;5.00;3.70;;;3.10;99.90;;;;;;4948521;28;20687;-53
2023/12/15 01:29:49;;;;;;;5.97;4.13;;;3.10;99.90;;;;;;4952079;28;20186;-54
2023/12/15 01:32:14;;;;;;;5.30;4.10;;;3.10;99.90;;;;;;4944875;28;20190;-56
2023/12/15 01:34:40;;;;;;;8.27;4.53;;;3.10;99.90;;;;;;4956235;28;20298;-55
2023/12/15 01:37:07;;;;;;;4.70;3.37;;;3.10;99.90;;;;;;4947665;28;20253;-54
2023/12/15 01:39:32;;;;;;;5.47;3.90;;;3.20;99.90;;;;;;4951082;28;20206;-55
2023/12/15 01:41:58;;;;;;;6.70;3.90;;;3.20;99.90;;;;;;4940401;28;20450;-54
2023/12/15 01:44:24;;;;;;;7.67;3.90;;;3.10;99.90;;;;;;4947548;28;20700;-53
2023/12/15 01:46:49;;;;;;;4.77;4.10;;;3.10;99.90;;;;;;4953345;28;20205;-53
2023/12/15 01:49:15;;;;;;;6.17;3.70;;;3.20;99.90;;;;;;4944354;28;20183;-56
2023/12/15 01:51:41;;;;;;;3.87;3.47;;;3.20;99.90;;;;;;4951436;28;20194;-53
2023/12/15 01:54:07;;;;;;;5.03;3.60;;;3.20;99.90;;;;;;4940548;28;20190;-52
2023/12/15 01:56:32;;;;;;;6.17;3.97;;;3.20;99.90;;;;;;4941898;28;20175;-52
2023/12/15 01:58:58;;;;;;;4.97;3.57;;;3.20;99.90;;;;;;4957910;28;20428;-56
2023/12/15 02:01:23;;;;;;;5.43;3.50;;;3.20;99.90;;;;;;4951759;28;20233;-54
2023/12/15 02:03:49;;;;;;;5.60;4.23;;;3.20;99.90;;;;;;4953529;28;20194;-54
2023/12/15 02:06:14;;;;;;;5.40;3.40;;;3.20;99.90;;;;;;4951974;28;20691;-53
2023/12/15 02:08:44;;;;;;;3.80;2.90;;;3.30;99.90;;;;;;4939465;28;20258;-54
2023/12/15 02:11:09;;;;;;;3.97;2.80;;;3.30;99.90;;;;;;4947904;28;20242;-53
2023/12/15 02:13:35;;;;;;;5.50;3.83;;;3.30;99.90;;;;;;4946781;28;20557;-54
2023/12/15 02:16:00;;;;;;;3.87;3.00;;;3.30;99.90;;;;;;4948181;28;20183;-52
2023/12/15 02:18:26;;;;;;;6.47;4.00;;;3.20;99.90;;;;;;4948235;28;20192;-53
2023/12/15 02:20:52;;;;;;;5.80;3.43;;;3.30;99.90;;;;;;4946791;28;20638;-55
2023/12/15 02:23:17;;;;;;;4.33;3.40;;;3.30;99.90;;;;;;4943810;28;20209;-52
2023/12/15 02:25:43;;;;;;;5.20;3.60;;;3.30;99.90;;;;;;4943710;28;20182;-54
2023/12/15 02:28:08;;;;;;;6.30;3.30;;;3.30;99.90;;;;;;4951267;28;20222;-54
2023/12/15 02:30:34;;;;;;;7.00;4.77;;;3.30;99.90;;;;;;4942932;28;20201;-55
2023/12/15 02:33:00;;;;;;;6.47;4.07;;;3.20;99.90;;;;;;4943061;28;20201;-55
2023/12/15 02:35:25;;;;;;;6.73;3.97;;;3.20;99.90;;;;;;4948928;28;20275;-53
2023/12/15 02:37:51;;;;;;;5.30;4.13;;;3.20;99.90;;;;;;4951499;28;20185;-53
2023/12/15 02:40:17;;;;;;;6.37;3.37;;;3.20;99.90;;;;;;4946520;28;20207;-54
2023/12/15 02:42:43;;;;;;;6.10;4.00;;;3.20;99.90;;;;;;4946792;28;20678;-55
2023/12/15 02:45:08;;;;;;;6.60;3.50;;;3.20;99.90;;;;;;4946974;28;20257;-56
2023/12/15 02:47:34;;;;;;;5.90;3.63;;;3.30;99.90;;;;;;4949087;28;20194;-53
2023/12/15 02:50:00;;;;;;;4.10;3.17;;;3.30;99.90;;;;;;4946757;28;20979;-53
2023/12/15 02:52:25;;;;;;;5.30;3.80;;;3.30;99.90;;;;;;4944707;28;20178;-52
2023/12/15 02:54:51;;;;;;;3.93;3.27;;;3.30;99.90;;;;;;4947018;28;20194;-55
2023/12/15 02:57:16;;;;;;;5.60;3.37;;;3.30;99.90;;;;;;4954318;28;20214;-52
2023/12/15 02:59:42;;;;;;;4.70;3.17;;;3.30;99.90;;;;;;4947529;28;20245;-54
2023/12/15 03:02:08;;;;;;;8.70;4.03;;;3.30;99.90;;;;;;4954820;28;20183;-54
2023/12/15 03:04:33;;;;;;;8.00;3.47;;;3.30;99.90;;;;;;4946421;28;20198;-52
2023/12/15 03:06:59;;;;;;;5.03;3.67;;;3.30;99.90;;;;;;4951390;28;20548;-56
2023/12/15 03:09:24;;;;;;;6.20;3.77;;;3.30;99.90;;;;;;4952903;28;20259;-54
2023/12/15 03:11:50;;;;;;;7.53;4.10;;;3.30;99.90;;;;;;4950288;28;20259;-54
2023/12/15 03:14:16;;;;;;;8.43;4.90;;;3.30;99.90;;;;;;4945323;28;20198;-52
2023/12/15 03:16:41;;;;;;;7.30;4.70;;;3.30;99.90;;;;;;4942511;28;20194;-53
2023/12/15 03:19:07;;;;;;;7.90;5.37;;;3.30;99.90;;;;;;4952567;28;20218;-54
2023/12/15 03:21:32;;;;;;;11.53;4.33;;;3.30;99.90;;;;;;4952549;28;20190;-52
2023/12/15 03:23:58;;;;;;;8.87;5.17;;;3.30;99.90;;;;;;4937354;28;20785;-56
2023/12/15 03:26:24;;;;;;;7.67;5.33;;;3.20;99.90;;;;;;4951732;28;20182;-54
2023/12/15 03:28:49;;;;;;;8.97;4.70;;;3.20;99.90;;;;;;4951179;28;20179;-52
2023/12/15 03:31:15;;;;;;;7.30;4.73;;;3.20;99.90;;;;;;4934157;28;20817;-53
2023/12/15 03:33:41;;;;;;;9.17;5.30;;;3.20;99.90;;;;;;4945660;28;20200;-53
2023/12/15 03:36:06;;;;;;;7.50;4.97;;;3.20;99.90;;;;;;4950004;28;20189;-53
2023/12/15 03:38:34;;;;;;;8.00;5.50;;;3.20;99.90;;;;;;4954687;28;20194;-54
2023/12/15 03:40:59;;;;;;;9.70;5.50;;;3.20;99.90;;;;;;4955668;28;20210;-53
2023/12/15 03:43:25;;;;;;;8.53;5.37;;;3.20;99.90;;;;;;4950376;28;20450;-55
2023/12/15 03:45:50;;;;;;;9.10;5.23;;;3.30;99.90;;;;;;4947430;28;20626;-55
2023/12/15 03:48:16;;;;;;;8.30;4.70;;;3.30;99.90;;;;;;4944955;28;20183;-56
2023/12/15 03:50:42;;;;;;;8.40;5.00;;;3.30;99.90;;;;;;4953940;28;20182;-53
2023/12/15 03:53:07;;;;;;;7.33;4.40;;;3.30;99.90;;;;;;4945405;28;20240;-56
2023/12/15 03:55:33;;;;;;;9.13;5.33;;;3.20;99.90;;;;;;4952009;28;20694;-52
2023/12/15 03:57:59;;;;;;;7.20;5.03;;;3.20;99.90;;;;;;4953647;28;20226;-54
2023/12/15 04:00:24;;;;;;;9.07;5.37;;;3.20;99.90;;;;;;4951473;28;20277;-53
2023/12/15 04:02:50;;;;;;;8.10;4.87;;;3.20;99.90;;;;;;4951164;28;20186;-54
2023/12/15 04:05:15;;;;;;;8.83;5.50;;;3.30;99.90;;;;;;4953903;28;20562;-54
2023/12/15 04:07:41;;;;;;;10.90;5.90;;;3.30;99.90;;;;;;4943662;28;20635;-53
2023/12/15 04:10:08;;;;;;;10.40;5.77;;;3.30;99.90;;;;;;4955874;28;20217;-55
2023/12/15 04:12:34;;;;;;;9.33;5.87;;;3.30;99.90;;;;;;4952468;28;20426;-53
2023/12/15 04:15:00;;;;;;;10.43;5.70;;;3.30;99.90;;;;;;4942591;28;20452;-55
2023/12/15 04:17:26;;;;;;;14.57;6.30;;;3.30;99.90;;;;;;4954690;28;21032;-54
2023/12/15 04:19:52;;;;;;;12.20;5.80;;;3.20;99.90;;;;;;4953728;28;20205;-55
2023/12/15 04:22:19;;;;;;;8.83;5.83;;;3.20;99.90;;;;;;4952289;28;20449;-55
2023/12/15 04:24:45;;;;;;;9.37;5.93;;;3.20;99.90;;;;;;4950846;28;20198;-54
2023/12/15 04:27:11;;;;;;;9.63;5.57;;;3.20;99.90;;;;;;4952663;28;20507;-54
2023/12/15 04:29:37;;;;;;;11.60;5.30;;;3.20;99.90;;;;;;4944641;28;20410;-54
2023/12/15 04:32:02;;;;;;;12.60;7.80;;;3.20;99.90;;;;;;4948153;28;21032;-53
2023/12/15 04:34:29;;;;;;;11.30;6.10;;;3.20;99.90;;;;;;4950861;28;20202;-55
2023/12/15 04:36:55;;;;;;;10.97;6.50;;;3.20;99.90;;;;;;4953631;28;20529;-54
2023/12/15 04:39:20;;;;;;;9.97;6.13;;;3.20;99.90;;;;;;4950609;28;20519;-53
2023/12/15 04:41:46;;;;;;;9.77;5.43;;;3.20;99.90;;;;;;4944528;28;20434;-54
2023/12/15 04:44:11;;;;;;;9.00;5.67;;;3.20;99.90;;;;;;4951028;28;20656;-55
2023/12/15 04:46:37;;;;;;;9.23;5.70;;;3.20;99.90;;;;;;4949632;28;20176;-53
2023/12/15 04:49:05;;;;;;;8.40;4.57;;;3.20;99.90;;;;;;4949537;28;20209;-54
2023/12/15 04:51:30;;;;;;;7.20;5.07;;;3.20;99.90;;;;;;4949844;28;20245;-54
2023/12/15 04:53:56;;;;;;;6.50;4.70;;;3.20;99.90;;;;;;4954544;28;20438;-56
2023/12/15 04:56:21;;;;;;;10.33;5.60;;;3.20;99.90;;;;;;4958660;28;20173;-53
2023/12/15 04:58:47;;;;;;;7.10;4.93;;;3.20;99.90;;;;;;4943156;28;20628;-54
2023/12/15 05:01:14;;;;;;;7.60;4.97;;;3.20;99.90;;;;;;4948422;28;20206;-53
2023/12/15 05:03:40;;;;;;;7.50;4.90;;;3.20;99.90;;;;;;4944509;28;20437;-53
2023/12/15 05:06:16;;;;;;;14.43;5.23;;;3.10;99.90;;;;;;4941669;28;20430;-57
2023/12/15 05:08:41;;;;;;;9.20;5.70;;;3.20;99.90;;;;;;4945193;28;20496;-52
2023/12/15 05:11:07;;;;;;;8.23;5.07;;;3.10;99.90;;;;;;4952168;28;20502;-54
2023/12/15 05:13:33;;;;;;;7.70;5.00;;;3.10;99.90;;;;;;4950636;28;20202;-54
2023/12/15 05:15:58;;;;;;;8.20;5.20;;;3.10;99.90;;;;;;4947520;28;20186;-53
2023/12/15 05:18:24;;;;;;;10.27;5.40;;;3.10;99.90;;;;;;4941680;28;20202;-53
2023/12/15 05:20:50;;;;;;;11.13;5.50;;;3.10;99.90;;;;;;4945866;28;20681;-51
2023/12/15 05:23:15;;;;;;;9.73;6.20;;;3.10;99.90;;;;;;4946301;28;20219;-54
2023/12/15 05:25:41;;;;;;;11.23;5.67;;;3.10;99.90;;;;;;4943548;28;20182;-56
2023/12/15 05:28:06;;;;;;;11.57;6.20;;;3.10;99.90;;;;;;4948777;28;20658;-55
2023/12/15 05:30:32;;;;;;;10.73;6.70;;;3.10;99.90;;;;;;4950787;28;20273;-52
2023/12/15 05:32:58;;;;;;;10.77;6.73;;;3.00;99.90;;;;;;4942407;28;20207;-56
2023/12/15 05:35:24;;;;;;;15.03;5.60;;;3.10;99.90;;;;;;4949407;28;20178;-53
2023/12/15 05:37:50;;;;;;;19.93;7.03;;;3.10;99.90;;;;;;4946419;28;20868;-54
2023/12/15 05:40:16;;;;;;;9.87;6.03;;;3.10;99.90;;;;;;4949187;28;20292;-54
2023/12/15 05:42:42;;;;;;;9.57;5.87;;;3.10;99.90;;;;;;4951145;28;20544;-55
2023/12/15 05:45:08;;;;;;;10.40;6.13;;;3.10;99.90;;;;;;4953740;28;20698;-53
2023/12/15 05:47:36;;;;;;;11.60;6.30;;;3.10;99.90;;;;;;4950042;28;20425;-54
2023/12/15 05:50:01;;;;;;;15.17;8.00;;;3.10;99.90;;;;;;4945444;28;20414;-57
2023/12/15 05:52:27;;;;;;;12.67;6.90;;;3.10;99.90;;;;;;4950750;28;20506;-54
2023/12/15 05:54:53;;;;;;;11.20;6.27;;;3.10;99.90;;;;;;4954264;28;20198;-54
2023/12/15 05:57:18;;;;;;;11.00;6.30;;;3.10;99.90;;;;;;4950288;28;20189;-52
2023/12/15 05:59:44;;;;;;;9.53;6.03;;;3.00;99.90;;;;;;4949310;28;20209;-54
2023/12/15 06:02:10;;;;;;;8.90;6.03;;;3.00;99.90;;;;;;4951228;28;20713;-56
2023/12/15 06:04:35;;;;;;;10.10;5.70;;;3.00;99.90;;;;;;4950242;28;20574;-54
2023/12/15 06:07:01;;;;;;;7.27;5.47;;;3.00;99.90;;;;;;4950832;28;20185;-53
2023/12/15 06:09:27;;;;;;;12.27;5.50;;;3.00;99.90;;;;;;4945066;28;20274;-55
2023/12/15 06:11:53;;;;;;;9.50;5.63;;;3.00;99.90;;;;;;4945187;28;20650;-54
2023/12/15 06:14:20;;;;;;;11.87;5.70;;;3.00;99.90;;;;;;4951165;28;20642;-54
2023/12/15 06:16:46;;;;;;;12.47;6.90;;;3.00;99.90;;;;;;4951209;28;20411;-53
2023/12/15 06:19:12;;;;;;;12.23;6.40;;;3.00;99.90;;;;;;4951839;28;20413;-53
2023/12/15 06:21:38;;;;;;;11.00;6.13;;;3.00;99.90;;;;;;4941200;28;20578;-52
2023/12/15 06:24:04;;;;;;;11.53;6.53;;;3.00;99.90;;;;;;4946321;28;20198;-54
2023/12/15 06:26:29;;;;;;;10.13;6.07;;;3.00;99.90;;;;;;4958793;28;20174;-55
2023/12/15 06:28:55;;;;;;;12.80;5.90;;;3.00;99.90;;;;;;4949943;28;20438;-54
2023/12/15 06:31:21;;;;;;;10.93;5.83;;;3.00;99.90;;;;;;4947367;28;20200;-56
2023/12/15 06:33:47;;;;;;;9.83;5.90;;;3.00;99.90;;;;;;4954344;28;20952;-54
2023/12/15 06:36:12;;;;;;;12.63;6.07;;;3.00;99.90;;;;;;4956649;28;20482;-58
2023/12/15 06:38:42;;;;;;;9.27;5.50;;;3.00;99.90;;;;;;4947118;28;20712;-53
2023/12/15 06:41:09;;;;;;;8.57;5.53;;;3.00;99.90;;;;;;4940188;28;20319;-51
2023/12/15 06:43:38;;;;;;;11.03;5.70;;;3.00;99.90;;;;;;4952980;28;20858;-54
2023/12/15 06:46:04;;;;;;;11.30;6.90;;;3.00;99.90;;;;;;4954329;28;20485;-54
2023/12/15 06:48:29;;;;;;;9.10;6.03;;;3.00;99.90;;;;;;4952344;28;20966;-53
2023/12/15 06:50:55;;;;;;;9.10;6.07;;;3.00;99.90;;;;;;4953561;28;20775;-56
2023/12/15 06:53:21;;;;;;;11.13;5.80;;;3.00;99.90;;;;;;4951340;28;20202;-54
2023/12/15 06:55:46;;;;;;;10.50;6.13;;;3.00;99.90;;;;;;4952569;28;20183;-54
2023/12/15 06:58:12;;;;;;;12.20;6.10;;;3.00;99.90;;;;;;4958049;28;20177;-53
2023/12/15 07:00:39;;;;;;;10.33;6.10;;;3.00;99.90;;;;;;4946776;28;20661;-55
2023/12/15 07:03:05;;;;;;;14.93;7.00;;;3.00;99.90;;;;;;4953217;28;20190;-53
2023/12/15 07:05:30;;;;;;;12.27;6.13;;;3.10;99.90;;;;;;4945747;28;20485;-54
2023/12/15 07:07:56;;;;;;;9.37;6.30;;;3.10;99.90;;;;;;4952018;28;20626;-55
2023/12/15 07:10:22;;;;;;;12.40;6.10;;;3.10;99.90;;;;;;4956891;28;20267;-54
2023/12/15 07:12:48;;;;;;;11.33;6.57;;;3.10;99.90;;;;;;4950751;28;20418;-57
2023/12/15 07:15:15;;;;;;;10.30;6.30;;;3.10;99.90;;;;;;4944822;28;20214;-53
2023/12/15 07:17:41;;;;;;;11.43;6.83;;;3.10;99.90;;;;;;4954684;28;20210;-54
2023/12/15 07:20:08;;;;;;;10.43;6.20;;;3.10;99.90;;;;;;4946786;28;20488;-53
2023/12/15 07:22:33;;;;;;;16.90;6.70;;;3.10;99.90;;;;;;4950391;28;20199;-54
2023/12/15 07:25:00;;;;;;;13.63;6.73;;;3.10;99.90;;;;;;4939737;28;20465;-53
2023/12/15 07:27:26;;;;;;;13.30;6.33;;;3.10;99.90;;;;;;4946620;28;20725;-53
2023/12/15 07:29:52;;;;;;;10.40;6.00;;;3.10;99.90;;;;;;4946452;28;20440;-54
2023/12/15 07:32:18;;;;;;;12.03;6.67;;;3.10;99.90;;;;;;4952618;28;20523;-51
2023/12/15 07:34:44;;;;;;;13.70;8.97;;;3.10;99.90;;;;;;4953442;28;21016;-55
2023/12/15 07:37:10;;;;;;;12.83;7.40;;;3.20;99.90;;;;;;4953566;28;20504;-54
2023/12/15 07:39:35;;;;;;;11.60;6.37;;;3.20;99.90;;;;;;4953310;28;20237;-53
2023/12/15 07:42:01;;;;;;;9.17;6.07;;;3.20;99.90;;;;;;4949577;28;20240;-54
2023/12/15 07:44:27;;;;;;;10.93;6.67;;;3.20;99.90;;;;;;4946323;28;20617;-56
2023/12/15 07:46:55;;;;;;;11.47;6.30;;;3.20;99.90;;;;;;4942868;28;20415;-53
2023/12/15 07:49:21;;;;;;;12.23;6.20;;;3.20;99.90;;;;;;4942234;28;20194;-56
2023/12/15 07:51:49;;;;;;;9.97;6.00;;;3.20;99.90;;;;;;4945940;28;20862;-55
2023/12/15 07:54:14;;;;;;;12.27;6.17;;;3.20;99.90;;;;;;4954342;28;20502;-51
2023/12/15 07:56:40;;;;;;;10.10;6.30;;;3.30;99.90;;;;;;4952197;28;20445;-55
2023/12/15 07:59:06;;;;;;;8.80;5.70;;;3.30;99.90;;;;;;4944253;28;20875;-53
2023/12/15 08:01:31;;;;;;;10.53;6.13;;;3.30;99.90;;;;;;4946675;28;20183;-54
2023/12/15 08:03:57;;;;;;;7.77;5.90;;;3.30;99.90;;;;;;4945385;28;20577;-54
2023/12/15 08:06:22;;;;;;;9.33;6.00;;;3.30;99.90;;;;;;4959406;28;20234;-54
2023/12/15 08:08:49;;;;;;;9.90;6.03;;;3.30;99.90;;;;;;4945226;28;20182;-55
2023/12/15 08:11:15;;;;;;;6.73;5.27;;;3.30;99.90;;;;;;4944556;28;20662;-53
2023/12/15 08:13:41;;;;;;;8.50;5.60;;;3.30;99.90;;;;;;4950886;28;20441;-55
2023/12/15 08:16:07;;;;;;;8.77;6.27;;;3.30;99.90;;;;;;4950142;28;20190;-53
2023/12/15 08:18:33;;;;;;;13.77;5.30;;;3.40;99.90;;;;;;4951996;28;20477;-54
2023/12/15 08:20:59;;;;;;;9.17;5.43;;;3.40;99.90;;;;;;4959266;28;20450;-55
2023/12/15 08:23:26;;;;;;;10.20;5.50;;;3.40;99.90;;;;;;4952139;28;20438;-54
2023/12/15 08:25:52;;;;;;;7.47;5.80;;;3.40;99.90;;;;;;4947044;28;20462;-54
2023/12/15 08:28:19;;;;;;;10.20;5.67;;;3.40;99.90;;;;;;4944417;28;20414;-52
2023/12/15 08:30:46;;;;;;;11.60;6.27;;;3.40;99.90;;;;;;4952963;28;20920;-54
2023/12/15 08:33:11;;;;;;;9.87;5.70;;;3.40;99.90;;;;;;4950727;28;20466;-52
2023/12/15 08:35:37;;;;;;;11.90;6.07;;;3.40;99.90;;;;;;4947731;28;20430;-54
2023/12/15 08:38:03;;;;;;;10.30;5.73;;;3.40;99.90;;;;;;4946443;28;20171;-53
2023/12/15 08:40:28;;;;;;;7.87;5.07;;;3.40;99.90;;;;;;4951083;28;20229;-54
2023/12/15 08:42:54;;;;;;;12.13;6.70;;;3.50;99.90;;;;;;4949959;28;20534;-57
2023/12/15 08:45:20;;;;;;;8.90;6.17;;;3.50;99.90;;;;;;4951678;28;20193;-55
2023/12/15 08:47:45;;;;;;;9.90;5.50;;;3.50;99.90;;;;;;4950299;28;20166;-54
2023/12/15 08:50:11;;;;;;;10.30;6.10;;;3.50;99.90;;;;;;4944087;28;20178;-55
2023/12/15 08:52:37;;;;;;;9.00;5.33;;;3.60;99.90;;;;;;4945809;28;20689;-55
2023/12/15 08:55:02;;;;;;;10.33;5.90;;;3.60;99.90;;;;;;4939987;28;20256;-53
2023/12/15 08:57:28;;;;;;;9.50;5.20;;;3.60;99.90;;;;;;4951470;28;20213;-54
2023/12/15 08:59:54;;;;;;;11.33;5.23;;;3.50;99.90;;;;;;4951207;28;20210;-54
2023/12/15 09:02:19;;;;;;;8.90;4.53;;;3.60;99.90;;;;;;4942731;28;20174;-56
2023/12/15 09:04:45;;;;;;;8.73;5.93;;;3.60;99.90;;;;;;4945468;28;20190;-56
2023/12/15 09:07:11;;;;;;;10.90;6.10;;;3.60;99.90;;;;;;4950286;28;20174;-57
2023/12/15 09:09:37;;;;;;;12.80;5.70;;;3.60;99.90;;;;;;4950550;28;20261;-55
2023/12/15 09:12:03;;;;;;;10.70;5.23;;;3.70;99.90;;;;;;4952297;28;20179;-56
2023/12/15 09:14:30;;;;;;;8.83;5.60;;;3.70;99.90;;;;;;4941470;28;20443;-55
2023/12/15 09:16:56;;;;;;;8.17;5.10;;;3.70;99.90;;;;;;4942069;28;20454;-54
2023/12/15 09:19:25;;;;;;;7.50;5.00;;;3.80;99.90;;;;;;4948460;28;20461;-54
2023/12/15 09:21:51;;;;;;;9.83;5.00;;;3.80;99.90;;;;;;4946073;28;21080;-54
2023/12/15 09:24:17;;;;;;;9.83;5.63;;;3.80;99.90;;;;;;4940113;28;20457;-53
2023/12/15 09:26:44;;;;;;;8.90;5.63;;;3.80;99.90;;;;;;4949023;28;20489;-53
2023/12/15 09:29:10;;;;;;;8.00;5.40;;;3.80;99.90;;;;;;4951590;28;20489;-56
2023/12/15 09:31:36;;;;;;;9.20;4.83;;;3.90;99.90;;;;;;4945449;28;20430;-55
2023/12/15 09:34:02;;;;;;;8.70;5.50;;;3.90;99.90;;;;;;4944225;28;20453;-56
2023/12/15 09:36:28;;;;;;;8.97;5.07;;;4.00;99.90;;;;;;4949556;28;20414;-56
2023/12/15 09:38:53;;;;;;;7.70;5.40;;;4.00;99.90;;;;;;4945911;28;20265;-54
2023/12/15 09:41:20;;;;;;;8.03;5.03;;;4.10;99.90;;;;;;4948370;28;20225;-55
2023/12/15 09:43:45;;;;;;;9.57;5.00;;;4.10;99.90;;;;;;4947586;28;20228;-53
2023/12/15 09:46:11;;;;;;;8.70;5.67;;;4.10;99.90;;;;;;4949317;28;20425;-55
2023/12/15 09:48:38;;;;;;;8.40;5.03;;;4.10;99.90;;;;;;4950827;28;20186;-55
2023/12/15 09:51:08;;;;;;;13.30;5.50;;;4.10;99.90;;;;;;4949814;28;20430;-54
2023/12/15 09:53:35;;;;;;;6.13;4.27;;;4.10;99.90;;;;;;4947396;28;20477;-53
2023/12/15 09:56:01;;;;;;;9.43;5.80;;;4.10;99.90;;;;;;4944806;28;20433;-54
2023/12/15 09:58:27;;;;;;;8.20;5.00;;;4.10;99.90;;;;;;4939061;28;20501;-55
2023/12/15 10:00:52;;;;;;;6.77;4.83;;;4.20;99.90;;;;;;4952764;28;21027;-55
2023/12/15 10:03:18;;;;;;;9.60;5.20;;;4.20;99.90;;;;;;4945213;28;20207;-55
2023/12/15 10:05:44;;;;;;;7.07;5.50;;;4.30;99.90;;;;;;4946003;28;20182;-54
2023/12/15 10:08:09;;;;;;;7.87;5.17;;;4.20;99.90;;;;;;4941203;28;20190;-55
2023/12/15 10:10:36;;;;;;;8.40;5.20;;;4.30;99.90;;;;;;4946815;28;20657;-55
2023/12/15 10:13:02;;;;;;;9.40;5.47;;;4.30;99.90;;;;;;4951576;28;20228;-53
2023/12/15 10:15:28;;;;;;;8.17;5.43;;;4.30;99.90;;;;;;4942702;28;20959;-54
2023/12/15 10:17:54;;;;;;;7.90;4.80;;;4.40;99.90;;;;;;4953558;28;20186;-54
2023/12/15 10:20:20;;;;;;;9.37;5.00;;;4.40;99.90;;;;;;4950254;28;20492;-53
2023/12/15 10:22:47;;;;;;;7.90;4.37;;;4.50;99.90;;;;;;4935706;28;20932;-54
2023/12/15 10:25:32;;;;;;;6.43;4.70;;;4.50;99.90;;;;;;4944040;28;20199;-54
2023/12/15 10:27:58;;;;;;;11.40;5.50;;;4.50;99.90;;;;;;4939886;28;20407;-55
2023/12/15 10:30:24;;;;;;;12.67;6.37;;;4.50;99.90;;;;;;4950382;28;20756;-55
2023/12/15 10:32:53;;;;;;;10.30;5.77;;;4.50;99.90;;;;;;4944717;28;20430;-55
2023/12/15 10:35:21;;;;;;;9.87;5.47;;;4.50;99.90;;;;;;4950000;28;20610;-53
2023/12/15 10:37:46;;;;;;;17.20;6.57;;;4.60;99.90;;;;;;4943469;28;20452;-53
2023/12/15 10:40:12;;;;;;;10.63;5.47;;;4.60;99.90;;;;;;4943484;28;20465;-54
2023/12/15 10:42:40;;;;;;;11.20;5.93;;;4.60;99.90;;;;;;4942890;28;20578;-53
2023/12/15 10:45:07;;;;;;;8.27;5.50;;;4.60;99.90;;;;;;4948322;28;20545;-56
2023/12/15 10:47:33;;;;;;;7.60;5.10;;;4.70;99.90;;;;;;4947807;28;20449;-54
2023/12/15 10:50:01;;;;;;;9.30;5.50;;;4.70;99.90;;;;;;4941645;28;20434;-53
2023/12/15 10:52:27;;;;;;;8.33;5.33;;;4.80;99.90;;;;;;4951512;28;20465;-54
2023/12/15 10:54:54;;;;;;;9.70;5.10;;;4.80;99.90;;;;;;4948276;28;20505;-55
2023/12/15 10:57:20;;;;;;;8.50;5.40;;;4.80;99.90;;;;;;4942078;28;20555;-54
2023/12/15 10:59:48;;;;;;;8.90;5.10;;;4.90;99.90;;;;;;4949212;28;20476;-53
2023/12/15 11:02:16;;;;;;;9.67;5.33;;;4.90;99.90;;;;;;4943932;28;20422;-55
2023/12/15 11:04:42;;;;;;;7.20;5.00;;;4.90;99.90;;;;;;4949530;28;20426;-55
2023/12/15 11:07:09;;;;;;;7.63;4.40;;;4.90;99.90;;;;;;4954781;28;20418;-53
2023/12/15 11:09:36;;;;;;;6.77;4.37;;;4.90;99.90;;;;;;4947297;28;20203;-57
2023/12/15 11:12:28;;;;;;;11.17;5.40;;;4.90;99.90;;;;;;4948388;28;20438;-55
2023/12/15 11:15:10;;;;;;;10.50;5.30;;;4.90;99.90;;;;;;4950696;28;20442;-54
2023/12/15 11:17:47;;;;;;;9.63;5.70;;;5.00;99.90;;;;;;4952276;28;20446;-53
2023/12/15 11:20:24;;;;;;;11.17;5.17;;;5.00;99.90;;;;;;4953097;28;20540;-54
2023/12/15 11:22:58;;;;;;;7.40;5.37;;;5.00;99.90;;;;;;4952271;28;20938;-54
2023/12/15 11:25:31;;;;;;;9.50;5.90;;;5.00;99.90;;;;;;4949025;28;20560;-55
2023/12/15 11:28:11;;;;;;;8.50;5.10;;;5.00;99.90;;;;;;4943379;28;20430;-54
2023/12/15 11:30:42;;;;;;;7.00;5.17;;;5.00;99.90;;;;;;4953728;28;20951;-54
2023/12/15 11:33:30;;;;;;;5.67;4.27;;;5.00;99.90;;;;;;4947237;28;20578;-54
2023/12/15 11:36:09;;;;;;;6.20;4.57;;;5.00;99.90;;;;;;4945283;28;20856;-55
2023/12/15 11:38:37;;;;;;;5.27;3.87;;;5.00;99.90;;;;;;4948365;28;20449;-56
2023/12/15 11:41:03;;;;;;;6.30;4.57;;;5.10;99.90;;;;;;4942726;28;20494;-53
2023/12/15 11:43:36;;;;;;;7.10;4.50;;;5.10;99.90;;;;;;4948873;28;20837;-56
2023/12/15 11:46:03;;;;;;;7.30;4.80;;;5.10;99.90;;;;;;4948185;28;20435;-55
2023/12/15 11:48:29;;;;;;;7.27;4.50;;;5.10;99.90;;;;;;4951270;28;20457;-54
2023/12/15 11:50:56;;;;;;;7.77;4.77;;;5.10;99.90;;;;;;4948793;28;20432;-54
2023/12/15 11:53:22;;;;;;;9.47;4.40;;;5.10;99.90;;;;;;4943798;28;20437;-54
2023/12/15 11:55:51;;;;;;;6.23;4.67;;;5.20;99.90;;;;;;4945076;28;20804;-55
2023/12/15 11:58:18;;;;;;;6.57;4.60;;;5.20;99.90;;;;;;4955131;28;20193;-55
2023/12/15 12:00:45;;;;;;;8.60;5.00;;;5.20;99.90;;;;;;4953447;28;20972;-54
2023/12/15 12:03:13;;;;;;;9.57;5.20;;;5.30;99.90;;;;;;4947986;28;20549;-52
2023/12/15 12:05:40;;;;;;;8.60;5.00;;;5.30;99.90;;;;;;4959376;28;20429;-53
2023/12/15 12:08:06;;;;;;;7.03;4.83;;;5.40;99.90;;;;;;4946169;28;20446;-53
2023/12/15 12:10:32;;;;;;;8.27;5.23;;;5.40;99.90;;;;;;4945415;28;20971;-55
2023/12/15 12:12:59;;;;;;;7.83;5.17;;;5.50;99.90;;;;;;4948881;28;20727;-55
2023/12/15 12:15:24;;;;;;;10.37;4.80;;;5.50;99.90;;;;;;4957001;28;20987;-55
2023/12/15 12:17:51;;;;;;;5.73;4.60;;;5.50;99.90;;;;;;4951281;28;20451;-55
2023/12/15 12:20:17;;;;;;;5.60;4.40;;;5.60;99.90;;;;;;4949707;28;20230;-54
2023/12/15 12:22:44;;;;;;;7.77;5.03;;;5.60;99.90;;;;;;4957121;28;20433;-56
2023/12/15 12:25:11;;;;;;;6.33;4.43;;;5.70;99.90;;;;;;4956259;28;20224;-56
2023/12/15 12:27:36;;;;;;;8.47;4.60;;;5.70;99.90;;;;;;4946624;28;20449;-56
2023/12/15 12:30:10;;;;;;;9.57;4.30;;;5.70;99.90;;;;;;4952668;28;20419;-54
2023/12/15 12:32:36;;;;;;;5.33;3.80;;;5.80;99.90;;;;;;4950564;28;20402;-53
2023/12/15 12:35:03;;;;;;;4.80;3.60;;;5.80;99.90;;;;;;4949353;28;20849;-53
2023/12/15 12:37:29;;;;;;;6.53;4.17;;;5.80;99.90;;;;;;4950810;28;20245;-54
2023/12/15 12:39:55;;;;;;;7.57;4.30;;;5.80;99.90;;;;;;4942660;28;20863;-54
2023/12/15 12:42:21;;;;;;;10.60;4.40;;;5.90;99.90;;;;;;4946871;28;20422;-57
2023/12/15 12:44:47;;;;;;;5.30;4.30;;;5.90;99.90;;;;;;4943815;28;20190;-57
2023/12/15 12:47:13;;;;;;;5.33;4.03;;;5.90;99.90;;;;;;4945207;28;20435;-54
2023/12/15 12:49:39;;;;;;;5.20;3.73;;;5.90;99.90;;;;;;4950951;28;20186;-56